sensor_id;sensor_type;location;lat;lon;timestamp;pressure;altitude;pressure_sealevel;temperature;humidity
29169;BME280;16219;42.864;23.360;2023-03-01T08:48:25;96304.75;;;6.88;100.00
29169;BME280;16219;42.864;23.360;2023-03-01T08:50:54;96367.19;;;7.25;100.00
29169;BME280;16219;42.864;23.360;2023-03-01T08:53:21;96336.09;;;7.08;100.00
29169;BME280;16219;42.864;23.360;2023-03-01T08:55:49;96335.31;;;7.08;100.00
29169;BME280;16219;42.864;23.360;2023-03-01T08:58:16;96365.03;;;7.32;100.00
29169;BME280;16219;42.864;23.360;2023-03-01T09:00:44;96367.19;;;7.25;100.00
29169;BME280;16219;42.864;23.360;2023-03-01T09:03:11;96349.34;;;7.22;100.00
29169;BME280;16219;42.864;23.360;2023-03-01T09:05:40;96354.81;;;7.31;100.00
29169;BME280;16219;42.864;23.360;2023-03-01T09:08:08;96329.84;;;6.99;100.00
29169;BME280;16219;42.864;23.360;2023-03-01T09:10:37;96362.81;;;7.15;100.00
29169;BME280;16219;42.864;23.360;2023-03-01T09:13:05;96297.25;;;6.71;100.00
29169;BME280;16219;42.864;23.360;2023-03-01T09:15:32;96320.56;;;6.78;100.00
29169;BME280;16219;42.864;23.360;2023-03-01T09:18:00;96363.13;;;7.04;100.00
29169;BME280;16219;42.864;23.360;2023-03-01T09:20:28;96260.56;;;6.32;100.00
29169;BME280;16219;42.864;23.360;2023-03-01T09:22:58;96296.84;;;6.54;100.00
29169;BME280;16219;42.864;23.360;2023-03-01T09:41:52;96256.44;;;6.60;100.00
29169;BME280;16219;42.864;23.360;2023-03-01T09:44:31;96339.56;;;7.33;100.00
29169;BME280;16219;42.864;23.360;2023-03-01T09:47:00;96242.19;;;6.71;100.00
29169;BME280;16219;42.864;23.360;2023-03-01T09:49:30;96323.72;;;7.43;100.00
29169;BME280;16219;42.864;23.360;2023-03-01T09:52:02;96326.75;;;7.55;100.00
29169;BME280;16219;42.864;23.360;2023-03-01T09:54:31;96308.97;;;7.52;100.00
29169;BME280;16219;42.864;23.360;2023-03-01T09:57:06;96308.16;;;7.51;100.00
29169;BME280;16219;42.864;23.360;2023-03-01T09:59:49;96304.50;;;7.53;100.00
29169;BME280;16219;42.864;23.360;2023-03-01T10:02:27;96324.22;;;7.74;100.00
29169;BME280;16219;42.864;23.360;2023-03-01T10:05:05;96282.91;;;7.56;100.00
29169;BME280;16219;42.864;23.360;2023-03-01T10:07:44;96320.19;;;8.06;100.00
29169;BME280;16219;42.864;23.360;2023-03-01T10:10:23;96312.69;;;8.18;100.00
29169;BME280;16219;42.864;23.360;2023-03-01T10:12:56;96219.03;;;7.65;100.00
29169;BME280;16219;42.864;23.360;2023-03-01T10:15:33;96285.34;;;8.19;100.00
29169;BME280;16219;42.864;23.360;2023-03-01T10:18:04;96294.47;;;8.26;100.00
29169;BME280;16219;42.864;23.360;2023-03-01T10:20:42;96302.06;;;8.28;100.00
29169;BME280;16219;42.864;23.360;2023-03-01T10:23:11;96223.84;;;7.77;100.00
29169;BME280;16219;42.864;23.360;2023-03-01T10:25:49;96256.66;;;8.04;100.00
29169;BME280;16219;42.864;23.360;2023-03-01T10:28:25;96267.59;;;8.11;100.00
29169;BME280;16219;42.864;23.360;2023-03-01T10:30:54;96294.44;;;8.50;100.00
29169;BME280;16219;42.864;23.360;2023-03-01T10:33:24;96211.06;;;7.94;100.00
29169;BME280;16219;42.864;23.360;2023-03-01T10:35:53;96292.31;;;8.71;100.00
29169;BME280;16219;42.864;23.360;2023-03-01T10:38:20;96299.19;;;8.86;100.00
29169;BME280;16219;42.864;23.360;2023-03-01T10:40:53;96266.00;;;8.71;100.00
29169;BME280;16219;42.864;23.360;2023-03-01T10:43:24;96292.19;;;8.95;100.00
29169;BME280;16219;42.864;23.360;2023-03-01T10:45:53;96281.28;;;8.88;100.00
29169;BME280;16219;42.864;23.360;2023-03-01T10:48:22;96239.50;;;8.49;100.00
29169;BME280;16219;42.864;23.360;2023-03-01T10:51:05;96219.91;;;8.41;100.00
29169;BME280;16219;42.864;23.360;2023-03-01T10:53:35;96193.44;;;8.14;100.00
29169;BME280;16219;42.864;23.360;2023-03-01T10:56:05;96174.13;;;8.05;100.00
29169;BME280;16219;42.864;23.360;2023-03-01T10:58:35;96271.28;;;8.71;100.00
29169;BME280;16219;42.864;23.360;2023-03-01T11:01:05;96190.34;;;8.12;100.00
29169;BME280;16219;42.864;23.360;2023-03-01T11:03:34;96180.50;;;7.98;100.00
29169;BME280;16219;42.864;23.360;2023-03-01T11:06:06;96182.50;;;8.07;100.00
29169;BME280;16219;42.864;23.360;2023-03-01T11:08:49;96261.09;;;8.65;100.00
29169;BME280;16219;42.864;23.360;2023-03-01T11:11:29;96227.94;;;8.50;100.00
29169;BME280;16219;42.864;23.360;2023-03-01T11:14:00;96254.00;;;8.65;100.00
29169;BME280;16219;42.864;23.360;2023-03-01T11:16:32;96228.50;;;8.47;100.00
29169;BME280;16219;42.864;23.360;2023-03-01T11:19:14;96163.09;;;8.02;100.00
29169;BME280;16219;42.864;23.360;2023-03-01T11:21:47;96205.94;;;8.22;100.00
29169;BME280;16219;42.864;23.360;2023-03-01T11:24:18;96258.91;;;8.53;100.00
29169;BME280;16219;42.864;23.360;2023-03-01T11:26:51;96166.28;;;7.81;100.00
29169;BME280;16219;42.864;23.360;2023-03-01T11:29:27;96230.69;;;8.21;100.00
29169;BME280;16219;42.864;23.360;2023-03-01T11:32:02;96257.59;;;8.32;100.00
29169;BME280;16219;42.864;23.360;2023-03-01T11:34:43;96190.44;;;7.83;100.00
29169;BME280;16219;42.864;23.360;2023-03-01T11:37:21;96225.81;;;8.09;100.00
29169;BME280;16219;42.864;23.360;2023-03-01T11:39:56;96210.25;;;7.94;100.00
29169;BME280;16219;42.864;23.360;2023-03-01T11:42:33;96231.94;;;8.05;100.00
29169;BME280;16219;42.864;23.360;2023-03-01T11:45:07;96156.34;;;7.59;100.00
29169;BME280;16219;42.864;23.360;2023-03-01T11:47:47;96253.97;;;8.09;100.00
29169;BME280;16219;42.864;23.360;2023-03-01T11:50:24;96227.38;;;7.67;100.00
29169;BME280;16219;42.864;23.360;2023-03-01T11:53:02;96166.41;;;7.28;100.00
29169;BME280;16219;42.864;23.360;2023-03-01T11:55:46;96246.94;;;7.80;100.00
29169;BME280;16219;42.864;23.360;2023-03-01T11:58:29;96229.09;;;7.77;100.00
29169;BME280;16219;42.864;23.360;2023-03-01T12:01:12;96243.63;;;7.93;100.00
29169;BME280;16219;42.864;23.360;2023-03-01T12:04:03;96232.16;;;8.08;100.00
29169;BME280;16219;42.864;23.360;2023-03-01T12:06:47;96182.31;;;8.03;100.00
29169;BME280;16219;42.864;23.360;2023-03-01T12:09:27;96225.44;;;8.40;100.00
29169;BME280;16219;42.864;23.360;2023-03-01T12:12:12;96231.00;;;8.38;100.00
29169;BME280;16219;42.864;23.360;2023-03-01T12:15:03;96182.66;;;7.96;100.00
29169;BME280;16219;42.864;23.360;2023-03-01T12:17:51;96234.72;;;8.13;100.00
29169;BME280;16219;42.864;23.360;2023-03-01T12:20:32;96167.06;;;7.62;100.00
29169;BME280;16219;42.864;23.360;2023-03-01T12:23:22;96199.03;;;7.69;100.00
29169;BME280;16219;42.864;23.360;2023-03-01T12:25:55;96109.91;;;7.11;100.00
29169;BME280;16219;42.864;23.360;2023-03-01T12:28:39;96230.72;;;7.97;100.00
29169;BME280;16219;42.864;23.360;2023-03-01T12:31:32;96181.59;;;7.55;100.00
29169;BME280;16219;42.864;23.360;2023-03-01T12:34:12;96222.19;;;7.86;100.00
29169;BME280;16219;42.864;23.360;2023-03-01T12:36:57;96218.88;;;7.99;100.00
29169;BME280;16219;42.864;23.360;2023-03-01T12:39:43;96183.34;;;7.83;100.00
29169;BME280;16219;42.864;23.360;2023-03-01T12:42:24;96131.84;;;7.44;100.00
29169;BME280;16219;42.864;23.360;2023-03-01T12:45:24;96127.00;;;7.33;100.00
29169;BME280;16219;42.864;23.360;2023-03-01T12:48:04;96215.72;;;7.97;100.00
29169;BME280;16219;42.864;23.360;2023-03-01T12:50:39;96202.03;;;8.00;100.00
29169;BME280;16219;42.864;23.360;2023-03-01T12:53:20;96183.78;;;7.90;100.00
29169;BME280;16219;42.864;23.360;2023-03-01T12:55:50;96212.91;;;8.13;100.00
29169;BME280;16219;42.864;23.360;2023-03-01T12:58:25;96212.19;;;8.26;100.00
29169;BME280;16219;42.864;23.360;2023-03-01T13:01:05;96122.44;;;7.81;100.00
29169;BME280;16219;42.864;23.360;2023-03-01T13:09:37;96199.13;;;8.59;100.00
29169;BME280;16219;42.864;23.360;2023-03-01T13:12:50;96199.84;;;8.64;100.00
29169;BME280;16219;42.864;23.360;2023-03-01T13:15:28;96206.41;;;8.81;100.00
29169;BME280;16219;42.864;23.360;2023-03-01T13:17:56;96204.06;;;8.79;100.00
29169;BME280;16219;42.864;23.360;2023-03-01T13:20:29;96094.00;;;8.21;100.00
29169;BME280;16219;42.864;23.360;2023-03-01T13:23:06;96207.44;;;8.98;100.00
29169;BME280;16219;42.864;23.360;2023-03-01T13:26:09;96105.50;;;8.44;100.00
29169;BME280;16219;42.864;23.360;2023-03-01T13:28:56;96119.81;;;8.51;100.00
29169;BME280;16219;42.864;23.360;2023-03-01T13:31:59;96106.34;;;8.39;100.00
29169;BME280;16219;42.864;23.360;2023-03-01T13:34:41;96109.50;;;8.41;100.00
29169;BME280;16219;42.864;23.360;2023-03-01T13:37:13;96099.97;;;8.45;100.00
29169;BME280;16219;42.864;23.360;2023-03-01T13:39:45;96195.25;;;9.02;100.00
29169;BME280;16219;42.864;23.360;2023-03-01T13:42:34;96161.25;;;8.92;100.00
29169;BME280;16219;42.864;23.360;2023-03-01T13:45:12;96172.47;;;8.79;100.00
29169;BME280;16219;42.864;23.360;2023-03-01T13:47:43;96171.03;;;8.73;100.00
29169;BME280;16219;42.864;23.360;2023-03-01T13:50:19;96180.09;;;8.81;100.00
29169;BME280;16219;42.864;23.360;2023-03-01T13:52:52;96112.63;;;8.24;100.00
29169;BME280;16219;42.864;23.360;2023-03-01T13:55:24;96118.78;;;8.34;100.00
29169;BME280;16219;42.864;23.360;2023-03-01T13:57:56;96164.28;;;8.67;100.00
29169;BME280;16219;42.864;23.360;2023-03-01T14:00:30;96104.44;;;8.26;100.00
29169;BME280;16219;42.864;23.360;2023-03-01T14:03:09;96175.63;;;8.81;100.00
29169;BME280;16219;42.864;23.360;2023-03-01T14:05:38;96172.22;;;8.81;100.00
29169;BME280;16219;42.864;23.360;2023-03-01T14:08:19;96181.53;;;8.73;100.00
29169;BME280;16219;42.864;23.360;2023-03-01T14:10:58;96197.25;;;8.78;100.00
29169;BME280;16219;42.864;23.360;2023-03-01T14:13:39;96185.53;;;8.70;100.00
29169;BME280;16219;42.864;23.360;2023-03-01T14:16:14;96198.31;;;8.77;100.00
29169;BME280;16219;42.864;23.360;2023-03-01T14:18:53;96158.38;;;8.42;100.00
29169;BME280;16219;42.864;23.360;2023-03-01T14:21:25;96168.56;;;8.63;100.00
29169;BME280;16219;42.864;23.360;2023-03-01T14:23:53;96169.47;;;8.72;100.00
29169;BME280;16219;42.864;23.360;2023-03-01T14:26:21;96140.53;;;8.39;100.00
29169;BME280;16219;42.864;23.360;2023-03-01T14:28:51;96170.88;;;8.50;100.00
29169;BME280;16219;42.864;23.360;2023-03-01T14:31:38;96194.28;;;8.66;100.00
29169;BME280;16219;42.864;23.360;2023-03-01T14:34:18;96195.19;;;8.42;100.00
29169;BME280;16219;42.864;23.360;2023-03-01T14:36:46;96161.97;;;8.27;100.00
29169;BME280;16219;42.864;23.360;2023-03-01T14:39:18;96134.44;;;7.87;100.00
29169;BME280;16219;42.864;23.360;2023-03-01T14:41:47;96186.34;;;8.33;100.00
29169;BME280;16219;42.864;23.360;2023-03-01T14:44:21;96098.09;;;7.57;100.00
29169;BME280;16219;42.864;23.360;2023-03-01T14:46:52;96189.84;;;8.29;100.00
29169;BME280;16219;42.864;23.360;2023-03-01T14:49:24;96093.88;;;7.56;100.00
29169;BME280;16219;42.864;23.360;2023-03-01T14:51:54;96182.16;;;8.13;100.00
29169;BME280;16219;42.864;23.360;2023-03-01T14:54:26;96079.28;;;7.49;100.00
29169;BME280;16219;42.864;23.360;2023-03-01T14:56:59;96156.38;;;7.96;100.00
29169;BME280;16219;42.864;23.360;2023-03-01T14:59:28;96089.69;;;7.36;100.00
29169;BME280;16219;42.864;23.360;2023-03-01T15:01:57;96159.63;;;7.88;100.00
29169;BME280;16219;42.864;23.360;2023-03-01T15:04:27;96181.44;;;7.89;100.00
29169;BME280;16219;42.864;23.360;2023-03-01T15:06:55;96174.84;;;7.91;100.00
29169;BME280;16219;42.864;23.360;2023-03-01T15:09:32;96130.59;;;7.61;100.00
29169;BME280;16219;42.864;23.360;2023-03-01T15:12:37;96083.28;;;7.23;100.00
29169;BME280;16219;42.864;23.360;2023-03-01T15:15:31;96086.91;;;7.27;100.00
29169;BME280;16219;42.864;23.360;2023-03-01T15:18:00;96081.09;;;7.30;100.00
29169;BME280;16219;42.864;23.360;2023-03-01T15:20:29;96139.88;;;7.72;100.00
29169;BME280;16219;42.864;23.360;2023-03-01T15:23:01;96135.16;;;7.74;100.00
29169;BME280;16219;42.864;23.360;2023-03-01T15:25:30;96169.72;;;8.00;100.00
29169;BME280;16219;42.864;23.360;2023-03-01T15:28:00;96160.56;;;7.97;100.00
29169;BME280;16219;42.864;23.360;2023-03-01T15:30:32;96161.16;;;7.94;100.00
29169;BME280;16219;42.864;23.360;2023-03-01T15:35:59;96088.94;;;7.30;100.00
29169;BME280;16219;42.864;23.360;2023-03-01T15:38:33;96071.47;;;7.01;100.00
29169;BME280;16219;42.864;23.360;2023-03-01T15:41:02;96172.63;;;7.80;100.00
29169;BME280;16219;42.864;23.360;2023-03-01T15:43:44;96175.56;;;7.73;100.00
29169;BME280;16219;42.864;23.360;2023-03-01T15:46:30;96135.84;;;7.61;100.00
29169;BME280;16219;42.864;23.360;2023-03-01T15:49:01;96085.13;;;7.22;100.00
29169;BME280;16219;42.864;23.360;2023-03-01T15:51:33;96171.13;;;7.92;100.00
29169;BME280;16219;42.864;23.360;2023-03-01T15:54:04;96130.53;;;7.66;100.00
29169;BME280;16219;42.864;23.360;2023-03-01T15:56:33;96146.03;;;7.86;100.00
29169;BME280;16219;42.864;23.360;2023-03-01T15:59:02;96116.31;;;7.67;100.00
29169;BME280;16219;42.864;23.360;2023-03-01T16:01:31;96092.41;;;7.49;100.00
29169;BME280;16219;42.864;23.360;2023-03-01T16:04:00;96124.50;;;7.84;100.00
29169;BME280;16219;42.864;23.360;2023-03-01T16:06:27;96168.59;;;7.87;100.00
29169;BME280;16219;42.864;23.360;2023-03-01T16:08:55;96165.44;;;7.85;100.00
29169;BME280;16219;42.864;23.360;2023-03-01T16:11:22;96155.94;;;7.89;100.00
29169;BME280;16219;42.864;23.360;2023-03-01T16:13:50;96122.88;;;7.69;100.00
29169;BME280;16219;42.864;23.360;2023-03-01T16:16:17;96150.41;;;7.91;100.00
29169;BME280;16219;42.864;23.360;2023-03-01T16:18:46;96113.69;;;7.67;100.00
29169;BME280;16219;42.864;23.360;2023-03-01T16:21:15;96089.47;;;7.51;100.00
29169;BME280;16219;42.864;23.360;2023-03-01T16:23:44;96146.44;;;7.93;100.00
29169;BME280;16219;42.864;23.360;2023-03-01T16:26:12;96055.91;;;7.29;100.00
29169;BME280;16219;42.864;23.360;2023-03-01T16:28:40;96104.34;;;7.61;100.00
29169;BME280;16219;42.864;23.360;2023-03-01T16:31:08;96137.41;;;7.81;100.00
29169;BME280;16219;42.864;23.360;2023-03-01T16:33:35;96069.81;;;7.30;100.00
29169;BME280;16219;42.864;23.360;2023-03-01T16:36:08;96100.13;;;7.41;100.00
29169;BME280;16219;42.864;23.360;2023-03-01T16:38:37;96175.63;;;7.92;100.00
29169;BME280;16219;42.864;23.360;2023-03-01T16:41:05;96172.69;;;7.93;100.00
29169;BME280;16219;42.864;23.360;2023-03-01T16:43:33;96172.91;;;7.97;100.00
29169;BME280;16219;42.864;23.360;2023-03-01T16:46:00;96145.34;;;7.75;100.00
29169;BME280;16219;42.864;23.360;2023-03-01T16:48:30;96185.97;;;7.83;100.00
29169;BME280;16219;42.864;23.360;2023-03-01T16:50:59;96168.84;;;7.86;100.00
29169;BME280;16219;42.864;23.360;2023-03-01T16:53:29;96139.50;;;7.60;100.00
29169;BME280;16219;42.864;23.360;2023-03-01T16:55:56;96170.31;;;7.73;100.00
29169;BME280;16219;42.864;23.360;2023-03-01T16:58:24;96174.53;;;7.74;100.00
29169;BME280;16219;42.864;23.360;2023-03-01T17:00:52;96171.84;;;7.79;100.00
29169;BME280;16219;42.864;23.360;2023-03-01T17:03:20;96174.75;;;7.78;100.00
29169;BME280;16219;42.864;23.360;2023-03-01T17:05:48;96102.75;;;7.17;100.00
29169;BME280;16219;42.864;23.360;2023-03-01T17:08:16;96078.88;;;6.94;100.00
29169;BME280;16219;42.864;23.360;2023-03-01T17:10:45;96116.66;;;7.17;100.00
29169;BME280;16219;42.864;23.360;2023-03-01T17:13:14;96180.47;;;7.61;100.00
29169;BME280;16219;42.864;23.360;2023-03-01T17:15:41;96156.47;;;7.48;100.00
29169;BME280;16219;42.864;23.360;2023-03-01T17:18:09;96173.56;;;7.46;100.00
29169;BME280;16219;42.864;23.360;2023-03-01T17:20:37;96169.84;;;7.47;100.00
29169;BME280;16219;42.864;23.360;2023-03-01T17:23:04;96138.81;;;7.30;100.00
29169;BME280;16219;42.864;23.360;2023-03-01T17:25:32;96148.22;;;7.36;100.00
29169;BME280;16219;42.864;23.360;2023-03-01T17:28:01;96135.47;;;7.24;100.00
29169;BME280;16219;42.864;23.360;2023-03-01T17:30:29;96112.59;;;7.06;100.00
29169;BME280;16219;42.864;23.360;2023-03-01T17:32:56;96146.69;;;7.30;100.00
29169;BME280;16219;42.864;23.360;2023-03-01T17:35:24;96119.13;;;7.09;100.00
29169;BME280;16219;42.864;23.360;2023-03-01T17:37:52;96168.00;;;7.47;100.00
29169;BME280;16219;42.864;23.360;2023-03-01T17:40:19;96161.22;;;7.46;100.00
29169;BME280;16219;42.864;23.360;2023-03-01T17:42:47;96146.25;;;7.23;100.00
29169;BME280;16219;42.864;23.360;2023-03-01T17:45:16;96166.41;;;7.28;100.00
29169;BME280;16219;42.864;23.360;2023-03-01T17:47:44;96173.91;;;7.39;100.00
29169;BME280;16219;42.864;23.360;2023-03-01T17:50:11;96092.06;;;6.89;100.00
29169;BME280;16219;42.864;23.360;2023-03-01T17:52:40;96172.91;;;7.35;100.00
29169;BME280;16219;42.864;23.360;2023-03-01T17:55:08;96107.97;;;6.98;100.00
29169;BME280;16219;42.864;23.360;2023-03-01T17:57:38;96147.81;;;7.24;100.00
29169;BME280;16219;42.864;23.360;2023-03-01T18:00:10;96086.41;;;6.77;100.00
29169;BME280;16219;42.864;23.360;2023-03-01T18:02:41;96176.19;;;7.46;100.00
29169;BME280;16219;42.864;23.360;2023-03-01T18:05:09;96184.34;;;7.44;100.00
29169;BME280;16219;42.864;23.360;2023-03-01T18:07:37;96176.47;;;7.44;100.00
29169;BME280;16219;42.864;23.360;2023-03-01T18:10:05;96189.66;;;7.39;100.00
29169;BME280;16219;42.864;23.360;2023-03-01T18:12:33;96164.88;;;7.26;100.00
29169;BME280;16219;42.864;23.360;2023-03-01T18:15:00;96177.34;;;7.35;100.00
29169;BME280;16219;42.864;23.360;2023-03-01T18:17:28;96186.75;;;7.41;100.00
29169;BME280;16219;42.864;23.360;2023-03-01T18:19:56;96169.53;;;7.30;100.00
29169;BME280;16219;42.864;23.360;2023-03-01T18:22:24;96103.47;;;6.74;100.00
29169;BME280;16219;42.864;23.360;2023-03-01T18:24:52;96169.88;;;7.23;100.00
29169;BME280;16219;42.864;23.360;2023-03-01T18:27:21;96193.53;;;7.42;100.00
29169;BME280;16219;42.864;23.360;2023-03-01T18:29:49;96167.19;;;7.28;100.00
29169;BME280;16219;42.864;23.360;2023-03-01T18:32:17;96176.06;;;7.32;100.00
29169;BME280;16219;42.864;23.360;2023-03-01T18:34:45;96190.44;;;7.40;100.00
29169;BME280;16219;42.864;23.360;2023-03-01T18:37:14;96143.84;;;7.03;100.00
29169;BME280;16219;42.864;23.360;2023-03-01T18:39:43;96122.41;;;6.95;100.00
29169;BME280;16219;42.864;23.360;2023-03-01T18:42:10;96107.63;;;6.81;100.00
29169;BME280;16219;42.864;23.360;2023-03-01T18:44:39;96158.16;;;7.15;100.00
29169;BME280;16219;42.864;23.360;2023-03-01T18:47:07;96188.13;;;7.33;100.00
29169;BME280;16219;42.864;23.360;2023-03-01T18:49:34;96189.69;;;7.34;100.00
29169;BME280;16219;42.864;23.360;2023-03-01T18:52:02;96145.97;;;7.00;100.00
29169;BME280;16219;42.864;23.360;2023-03-01T18:54:31;96172.34;;;7.14;100.00
29169;BME280;16219;42.864;23.360;2023-03-01T18:57:00;96132.31;;;6.74;100.00
29169;BME280;16219;42.864;23.360;2023-03-01T18:59:28;96113.88;;;6.56;100.00
29169;BME280;16219;42.864;23.360;2023-03-01T19:01:56;96164.78;;;7.08;100.00
29169;BME280;16219;42.864;23.360;2023-03-01T19:04:24;96220.78;;;7.22;100.00
29169;BME280;16219;42.864;23.360;2023-03-01T19:06:52;96211.63;;;7.19;100.00
29169;BME280;16219;42.864;23.360;2023-03-01T19:09:20;96135.22;;;6.73;100.00
29169;BME280;16219;42.864;23.360;2023-03-01T19:11:49;96227.56;;;7.28;100.00
29169;BME280;16219;42.864;23.360;2023-03-01T19:14:17;96195.94;;;7.14;100.00
29169;BME280;16219;42.864;23.360;2023-03-01T19:16:44;96131.16;;;6.57;100.00
29169;BME280;16219;42.864;23.360;2023-03-01T19:21:54;96221.47;;;7.33;100.00
29169;BME280;16219;42.864;23.360;2023-03-01T19:24:21;96189.88;;;7.19;100.00
29169;BME280;16219;42.864;23.360;2023-03-01T19:26:53;96197.63;;;7.29;100.00
29169;BME280;16219;42.864;23.360;2023-03-01T19:29:20;96206.72;;;7.37;100.00
29169;BME280;16219;42.864;23.360;2023-03-01T19:31:48;96217.22;;;7.37;100.00
29169;BME280;16219;42.864;23.360;2023-03-01T19:34:16;96226.22;;;7.31;100.00
29169;BME280;16219;42.864;23.360;2023-03-01T19:36:43;96175.88;;;6.99;100.00
29169;BME280;16219;42.864;23.360;2023-03-01T19:39:13;96188.03;;;6.90;100.00
29169;BME280;16219;42.864;23.360;2023-03-01T19:41:41;96221.34;;;7.19;100.00
29169;BME280;16219;42.864;23.360;2023-03-01T19:44:10;96201.44;;;7.13;100.00
29169;BME280;16219;42.864;23.360;2023-03-01T19:46:41;96222.00;;;7.30;100.00
29169;BME280;16219;42.864;23.360;2023-03-01T19:49:09;96217.94;;;7.18;100.00
29169;BME280;16219;42.864;23.360;2023-03-01T19:51:36;96231.84;;;7.19;100.00
29169;BME280;16219;42.864;23.360;2023-03-01T19:54:04;96228.94;;;7.20;100.00
29169;BME280;16219;42.864;23.360;2023-03-01T19:56:34;96244.44;;;7.17;100.00
29169;BME280;16219;42.864;23.360;2023-03-01T19:59:02;96234.19;;;7.20;100.00
29169;BME280;16219;42.864;23.360;2023-03-01T20:01:32;96226.00;;;7.27;100.00
29169;BME280;16219;42.864;23.360;2023-03-01T20:04:00;96160.50;;;6.88;100.00
29169;BME280;16219;42.864;23.360;2023-03-01T20:06:28;96208.38;;;7.04;100.00
29169;BME280;16219;42.864;23.360;2023-03-01T20:08:56;96157.84;;;6.64;100.00
29169;BME280;16219;42.864;23.360;2023-03-01T20:11:24;96236.84;;;7.15;100.00
29169;BME280;16219;42.864;23.360;2023-03-01T20:13:51;96243.13;;;7.19;100.00
29169;BME280;16219;42.864;23.360;2023-03-01T20:16:19;96244.97;;;7.19;100.00
29169;BME280;16219;42.864;23.360;2023-03-01T20:18:51;96187.75;;;6.63;100.00
29169;BME280;16219;42.864;23.360;2023-03-01T20:21:18;96194.16;;;6.81;100.00
29169;BME280;16219;42.864;23.360;2023-03-01T20:23:46;96224.94;;;6.99;100.00
29169;BME280;16219;42.864;23.360;2023-03-01T20:26:14;96161.31;;;6.59;100.00
29169;BME280;16219;42.864;23.360;2023-03-01T20:28:45;96204.16;;;6.73;100.00
29169;BME280;16219;42.864;23.360;2023-03-01T20:31:14;96174.53;;;6.44;100.00
29169;BME280;16219;42.864;23.360;2023-03-01T20:33:42;96256.59;;;7.08;100.00
29169;BME280;16219;42.864;23.360;2023-03-01T20:36:12;96186.13;;;6.67;100.00
29169;BME280;16219;42.864;23.360;2023-03-01T20:38:39;96254.94;;;7.17;100.00
29169;BME280;16219;42.864;23.360;2023-03-01T20:41:08;96264.41;;;7.18;100.00
29169;BME280;16219;42.864;23.360;2023-03-01T20:43:36;96167.97;;;6.46;100.00
29169;BME280;16219;42.864;23.360;2023-03-01T20:46:05;96250.28;;;7.09;100.00
29169;BME280;16219;42.864;23.360;2023-03-01T20:48:33;96156.50;;;6.37;100.00
29169;BME280;16219;42.864;23.360;2023-03-01T20:51:04;96157.03;;;6.34;100.00
29169;BME280;16219;42.864;23.360;2023-03-01T20:53:33;96178.69;;;6.50;100.00
29169;BME280;16219;42.864;23.360;2023-03-01T20:56:01;96178.88;;;6.59;100.00
29169;BME280;16219;42.864;23.360;2023-03-01T20:58:29;96247.22;;;7.01;100.00
29169;BME280;16219;42.864;23.360;2023-03-01T21:00:59;96148.66;;;6.37;100.00
29169;BME280;16219;42.864;23.360;2023-03-01T21:03:26;96211.16;;;6.88;100.00
29169;BME280;16219;42.864;23.360;2023-03-01T21:05:54;96218.00;;;6.79;100.00
29169;BME280;16219;42.864;23.360;2023-03-01T21:08:22;96239.50;;;6.81;100.00
29169;BME280;16219;42.864;23.360;2023-03-01T21:10:54;96210.34;;;6.54;100.00
29169;BME280;16219;42.864;23.360;2023-03-01T21:13:22;96217.63;;;6.62;100.00
29169;BME280;16219;42.864;23.360;2023-03-01T21:15:54;96252.00;;;6.94;100.00
29169;BME280;16219;42.864;23.360;2023-03-01T21:18:22;96187.22;;;6.61;100.00
29169;BME280;16219;42.864;23.360;2023-03-01T21:20:57;96255.69;;;6.93;100.00
29169;BME280;16219;42.864;23.360;2023-03-01T21:23:27;96220.44;;;6.75;100.00
29169;BME280;16219;42.864;23.360;2023-03-01T21:26:01;96172.53;;;6.31;100.00
29169;BME280;16219;42.864;23.360;2023-03-01T21:28:29;96210.91;;;6.50;100.00
29169;BME280;16219;42.864;23.360;2023-03-01T21:31:03;96256.47;;;6.94;100.00
29169;BME280;16219;42.864;23.360;2023-03-01T21:33:30;96269.28;;;6.95;100.00
29169;BME280;16219;42.864;23.360;2023-03-01T21:35:59;96234.34;;;6.71;100.00
29169;BME280;16219;42.864;23.360;2023-03-01T21:38:29;96184.22;;;6.43;100.00
29169;BME280;16219;42.864;23.360;2023-03-01T21:41:04;96258.03;;;6.95;100.00
29169;BME280;16219;42.864;23.360;2023-03-01T21:43:33;96255.25;;;6.81;100.00
29169;BME280;16219;42.864;23.360;2023-03-01T21:46:01;96238.84;;;6.65;100.00
29169;BME280;16219;42.864;23.360;2023-03-01T21:48:29;96226.06;;;6.54;100.00
29169;BME280;16219;42.864;23.360;2023-03-01T21:50:58;96213.09;;;6.38;100.00
29169;BME280;16219;42.864;23.360;2023-03-01T21:58:44;96223.88;;;6.66;100.00
29169;BME280;16219;42.864;23.360;2023-03-01T22:01:14;96246.28;;;6.87;100.00
29169;BME280;16219;42.864;23.360;2023-03-01T22:03:42;96231.16;;;6.74;100.00
29169;BME280;16219;42.864;23.360;2023-03-01T22:06:15;96180.13;;;6.27;100.00
29169;BME280;16219;42.864;23.360;2023-03-01T22:08:46;96262.09;;;6.77;100.00
29169;BME280;16219;42.864;23.360;2023-03-01T22:11:14;96248.25;;;6.71;100.00
29169;BME280;16219;42.864;23.360;2023-03-01T22:13:44;96172.13;;;6.13;100.00
29169;BME280;16219;42.864;23.360;2023-03-01T22:16:12;96241.72;;;6.69;100.00
29169;BME280;16219;42.864;23.360;2023-03-01T22:18:39;96237.28;;;6.64;100.00
29169;BME280;16219;42.864;23.360;2023-03-01T22:21:07;96141.97;;;6.16;100.00
29169;BME280;16219;42.864;23.360;2023-03-01T22:23:37;96195.19;;;6.50;100.00
29169;BME280;16219;42.864;23.360;2023-03-01T22:26:05;96166.56;;;6.20;100.00
29169;BME280;16219;42.864;23.360;2023-03-01T22:28:34;96252.09;;;6.84;100.00
29169;BME280;16219;42.864;23.360;2023-03-01T22:31:04;96246.16;;;6.68;100.00
29169;BME280;16219;42.864;23.360;2023-03-01T22:33:31;96252.47;;;6.67;100.00
29169;BME280;16219;42.864;23.360;2023-03-01T22:35:59;96226.84;;;6.54;100.00